createdAt,value
2023-03-03T00:01:05.288Z,203.85
2023-03-03T00:03:34.527Z,221.52
2023-03-03T00:06:03.639Z,221.50
2023-03-03T00:08:33.463Z,215.98
2023-03-03T00:11:03.238Z,224.65
2023-03-03T00:13:32.784Z,236.70
2023-03-03T00:16:15.228Z,235.82
2023-03-03T00:18:47.920Z,227.20
2023-03-03T00:21:29.306Z,237.02
2023-03-03T00:24:13.143Z,237.45
2023-03-03T00:26:42.603Z,226.05
2023-03-03T00:29:32.392Z,228.95
2023-03-03T00:32:28.431Z,241.43
2023-03-03T00:35:01.817Z,230.73
2023-03-03T00:37:32.389Z,233.63
2023-03-03T00:40:30.719Z,247.18
2023-03-03T00:43:01.288Z,238.77
2023-03-03T00:45:36.365Z,236.75
2023-03-03T00:48:22.311Z,236.55
2023-03-03T00:50:52.059Z,231.02
2023-03-03T00:53:21.144Z,230.73
2023-03-03T00:55:51.680Z,226.25
2023-03-03T00:58:21.857Z,227.70
2023-03-03T01:00:50.547Z,234.40
2023-03-03T01:03:19.985Z,226.35
2023-03-03T01:05:48.683Z,236.52
2023-03-03T01:08:16.629Z,215.35
2023-03-03T01:10:50.807Z,229.18
2023-03-03T01:13:22.397Z,219.65
2023-03-03T01:15:50.933Z,200.98
2023-03-03T01:18:19.064Z,249.60
2023-03-03T01:20:47.633Z,242.77
2023-03-03T01:23:15.531Z,260.67
2023-03-03T01:25:43.760Z,257.85
2023-03-03T01:28:12.080Z,245.77
2023-03-03T01:30:41.781Z,233.98
2023-03-03T01:33:09.694Z,235.82
2023-03-03T01:35:40.932Z,228.52
2023-03-03T01:38:09.048Z,231.98
2023-03-03T01:40:37.525Z,215.85
2023-03-03T01:43:05.536Z,218.73
2023-03-03T01:46:14.645Z,224.95
2023-03-03T01:48:44.101Z,219.85
2023-03-03T01:51:19.153Z,220.68
2023-03-03T01:53:51.067Z,229.07
2023-03-03T01:56:19.773Z,228.63
2023-03-03T01:58:52.390Z,232.88
2023-03-03T02:01:24.141Z,217.90
2023-03-03T02:03:53.430Z,230.13
2023-03-03T02:06:25.698Z,229.10
2023-03-03T02:08:58.392Z,224.27
2023-03-03T02:11:27.673Z,225.63
2023-03-03T02:13:55.655Z,224.70
2023-03-03T02:16:25.343Z,228.35
2023-03-03T02:18:53.337Z,229.55
2023-03-03T02:21:22.782Z,240.85
2023-03-03T02:23:54.468Z,225.10
2023-03-03T02:26:26.035Z,327.38
2023-03-03T02:28:54.086Z,225.13
2023-03-03T02:31:25.101Z,222.15
2023-03-03T02:33:54.619Z,210.93
2023-03-03T02:36:24.918Z,204.68
2023-03-03T02:38:56.569Z,207.05
2023-03-03T02:41:31.979Z,221.98
2023-03-03T02:44:01.962Z,231.98
2023-03-03T02:46:34.309Z,235.15
2023-03-03T02:49:02.883Z,240.02
2023-03-03T02:51:31.088Z,247.27
2023-03-03T02:53:59.182Z,236.23
2023-03-03T02:56:28.924Z,244.77
2023-03-03T02:58:57.083Z,256.02
2023-03-03T03:01:25.663Z,259.00
2023-03-03T03:03:53.648Z,247.68
2023-03-03T03:06:21.900Z,219.90
2023-03-03T03:08:49.821Z,237.73
2023-03-03T03:11:18.175Z,262.17
2023-03-03T03:13:47.588Z,255.48
2023-03-03T03:16:15.823Z,270.88
2023-03-03T03:18:43.959Z,272.58
2023-03-03T03:21:13.448Z,261.77
2023-03-03T03:23:41.804Z,259.15
2023-03-03T03:26:10.794Z,269.38
2023-03-03T03:28:39.163Z,259.88
2023-03-03T03:31:10.280Z,251.05
2023-03-03T03:33:38.675Z,242.35
2023-03-03T03:36:07.725Z,264.48
2023-03-03T03:38:37.278Z,271.83
2023-03-03T03:41:06.229Z,274.23
2023-03-03T03:43:34.438Z,260.98
2023-03-03T03:46:02.736Z,247.30
2023-03-03T03:48:32.167Z,248.57
2023-03-03T03:51:00.321Z,229.75
2023-03-03T03:53:28.257Z,222.32
2023-03-03T03:55:56.432Z,230.77
2023-03-03T03:58:24.368Z,230.75
2023-03-03T04:00:52.661Z,230.30
2023-03-03T04:03:20.835Z,232.27
2023-03-03T04:05:51.069Z,219.45
2023-03-03T04:08:19.002Z,225.65
2023-03-03T04:10:47.328Z,213.55
2023-03-03T04:13:15.225Z,275.13
2023-03-03T04:15:43.740Z,230.85
2023-03-03T04:18:11.868Z,225.27
2023-03-03T04:20:41.282Z,248.95
2023-03-03T04:23:10.743Z,250.27
2023-03-03T04:25:39.379Z,249.85
2023-03-03T04:28:08.373Z,250.77
2023-03-03T04:30:36.546Z,254.00
2023-03-03T04:33:04.894Z,236.00
2023-03-03T04:35:33.349Z,252.98
2023-03-03T04:38:01.287Z,240.90
2023-03-03T04:40:31.170Z,256.70
2023-03-03T04:42:59.130Z,258.58
2023-03-03T04:45:27.360Z,220.05
2023-03-03T04:47:55.297Z,208.60
2023-03-03T04:50:23.700Z,221.07
2023-03-03T04:52:51.635Z,242.48
2023-03-03T04:55:19.980Z,247.50
2023-03-03T04:57:49.427Z,270.52
2023-03-03T05:00:18.784Z,259.15
2023-03-03T05:02:49.337Z,265.80
2023-03-03T05:05:17.742Z,247.77
2023-03-03T05:07:45.708Z,233.65
2023-03-03T05:10:14.010Z,235.70
2023-03-03T05:12:42.077Z,232.13
2023-03-03T05:15:13.534Z,251.27
2023-03-03T05:17:41.452Z,228.05
2023-03-03T05:20:11.528Z,220.27
2023-03-03T05:22:39.457Z,209.63
2023-03-03T05:25:09.814Z,210.20
2023-03-03T05:27:37.950Z,218.55
2023-03-03T05:30:07.171Z,214.23
2023-03-03T05:32:36.467Z,215.05
2023-03-03T05:35:05.367Z,222.77
2023-03-03T05:37:33.415Z,223.38
2023-03-03T05:40:01.811Z,218.82
2023-03-03T05:42:29.797Z,201.30
2023-03-03T05:44:58.518Z,225.13
2023-03-03T05:47:26.601Z,215.65
2023-03-03T05:49:56.144Z,210.73
2023-03-03T05:52:24.583Z,207.07
2023-03-03T05:54:52.936Z,221.43
2023-03-03T05:57:20.964Z,237.20
2023-03-03T05:59:49.131Z,209.75
2023-03-03T06:02:17.756Z,222.15
2023-03-03T06:04:46.033Z,226.65
2023-03-03T06:07:15.321Z,229.02
2023-03-03T06:09:43.694Z,259.35
2023-03-03T06:12:11.734Z,252.65
2023-03-03T06:14:39.897Z,298.40
2023-03-03T06:17:07.952Z,285.73
2023-03-03T06:19:36.860Z,302.23
2023-03-03T06:22:05.015Z,289.48
2023-03-03T06:24:34.643Z,288.85
2023-03-03T06:27:03.048Z,242.00
2023-03-03T06:29:31.240Z,272.98
2023-03-03T06:31:59.489Z,266.80
2023-03-03T06:34:27.976Z,262.02
2023-03-03T06:36:56.931Z,246.07
2023-03-03T06:39:25.287Z,250.75
2023-03-03T06:41:54.766Z,249.18
2023-03-03T06:44:22.686Z,242.48
2023-03-03T06:46:51.257Z,243.52
2023-03-03T06:49:19.287Z,242.00
2023-03-03T06:51:47.479Z,244.90
2023-03-03T06:54:17.211Z,258.95
2023-03-03T06:56:46.466Z,263.73
2023-03-03T06:59:17.105Z,264.90
2023-03-03T07:01:46.602Z,266.67
2023-03-03T07:04:26.627Z,255.15
2023-03-03T07:06:54.847Z,260.83
2023-03-03T07:09:25.163Z,257.75
2023-03-03T07:11:54.064Z,261.52
2023-03-03T07:14:23.310Z,255.73
2023-03-03T07:16:55.081Z,244.93
2023-03-03T07:19:30.754Z,266.52
2023-03-03T07:21:59.237Z,258.02
2023-03-03T07:24:28.943Z,236.95
2023-03-03T07:27:02.041Z,223.18
2023-03-03T07:29:31.545Z,235.25
2023-03-03T07:32:00.355Z,236.73
2023-03-03T07:34:32.608Z,215.75
2023-03-03T07:37:04.731Z,209.70
2023-03-03T07:39:39.033Z,167.88
2023-03-03T07:42:23.560Z,205.70
2023-03-03T07:44:55.352Z,206.70
2023-03-03T07:49:54.316Z,204.85
2023-03-03T07:52:28.838Z,218.93
2023-03-03T07:54:58.962Z,212.57
2023-03-03T07:57:28.735Z,225.52
2023-03-03T08:00:03.207Z,217.18
2023-03-03T08:02:39.454Z,222.45
2023-03-03T08:05:35.955Z,222.13
2023-03-03T08:08:20.714Z,227.05
2023-03-03T08:10:50.718Z,229.52
2023-03-03T08:13:21.006Z,231.00
2023-03-03T08:15:52.001Z,232.00
2023-03-03T08:18:25.639Z,227.32
2023-03-03T08:20:54.864Z,225.05
2023-03-03T08:23:23.562Z,221.02
2023-03-03T08:25:53.033Z,220.75
2023-03-03T08:28:22.582Z,218.57
2023-03-03T08:31:02.671Z,220.57
2023-03-03T08:33:37.650Z,217.20
2023-03-03T08:36:06.348Z,217.77
2023-03-03T08:38:35.875Z,213.15
2023-03-03T08:41:04.137Z,225.90
2023-03-03T08:43:32.654Z,226.98
2023-03-03T08:46:05.442Z,231.55
2023-03-03T08:48:34.796Z,233.38
2023-03-03T08:51:02.849Z,248.20
2023-03-03T08:53:33.521Z,247.15
2023-03-03T08:56:01.605Z,261.20
2023-03-03T08:58:35.148Z,276.27
2023-03-03T09:01:05.932Z,264.30
2023-03-03T09:03:34.114Z,266.52
2023-03-03T09:06:02.257Z,262.70
2023-03-03T09:08:30.872Z,266.10
2023-03-03T09:10:59.109Z,284.55
2023-03-03T09:13:29.836Z,300.73
2023-03-03T09:15:59.601Z,313.05
2023-03-03T09:18:32.678Z,319.52
2023-03-03T09:21:00.861Z,311.05
2023-03-03T09:23:34.751Z,346.10
2023-03-03T09:26:33.237Z,337.48
2023-03-03T09:29:17.816Z,340.42
2023-03-03T09:31:47.554Z,342.90
2023-03-03T09:34:22.304Z,336.42
2023-03-03T09:36:50.983Z,336.08
2023-03-03T09:39:20.990Z,332.00
2023-03-03T09:42:14.104Z,340.45
2023-03-03T09:45:09.456Z,325.88
2023-03-03T09:47:49.882Z,334.67
2023-03-03T09:50:31.480Z,322.98
2023-03-03T09:53:11.728Z,314.60
2023-03-03T09:55:48.360Z,298.58
2023-03-03T09:58:32.401Z,294.90
2023-03-03T10:01:11.115Z,276.60
2023-03-03T10:04:07.503Z,281.00
2023-03-03T10:06:39.013Z,287.60
2023-03-03T10:09:30.947Z,273.88
2023-03-03T10:12:03.916Z,263.05
2023-03-03T10:14:55.003Z,268.65
2023-03-03T10:17:30.120Z,270.92
2023-03-03T10:20:11.085Z,286.10
2023-03-03T10:22:49.771Z,299.70
2023-03-03T10:25:23.723Z,312.48
2023-03-03T10:28:03.569Z,281.58
2023-03-03T10:30:54.725Z,296.95
2023-03-03T10:33:35.197Z,308.50
2023-03-03T10:36:19.678Z,307.45
2023-03-03T10:38:55.515Z,293.25
2023-03-03T10:42:00.431Z,323.05
2023-03-03T10:44:37.835Z,312.30
2023-03-03T10:47:23.599Z,293.30
2023-03-03T10:49:59.296Z,314.80
2023-03-03T10:52:35.033Z,335.88
2023-03-03T10:55:36.879Z,337.92
2023-03-03T11:00:42.549Z,335.88
2023-03-03T11:03:38.054Z,326.15
2023-03-03T11:06:07.974Z,355.50
2023-03-03T11:08:39.342Z,341.30
2023-03-03T11:11:16.098Z,345.67
2023-03-03T11:13:48.496Z,348.65
2023-03-03T11:16:38.307Z,335.08
2023-03-03T11:19:24.557Z,344.52
2023-03-03T11:21:57.565Z,363.20
2023-03-03T11:24:36.650Z,346.38
2023-03-03T11:27:24.029Z,351.13
2023-03-03T11:30:04.928Z,372.30
2023-03-03T11:32:41.721Z,344.08
2023-03-03T11:35:23.734Z,353.10
2023-03-03T11:38:00.460Z,326.13
2023-03-03T11:40:31.806Z,317.13
2023-03-03T11:43:07.241Z,326.00
2023-03-03T11:45:41.130Z,308.77
2023-03-03T11:48:15.828Z,327.92
2023-03-03T11:50:48.490Z,329.33
2023-03-03T11:53:28.194Z,324.20
2023-03-03T11:55:58.515Z,316.63
2023-03-03T11:58:30.867Z,301.55
2023-03-03T12:01:04.131Z,294.13
2023-03-03T12:03:35.745Z,285.73
2023-03-03T12:06:14.600Z,286.48
2023-03-03T12:09:08.796Z,287.42
2023-03-03T12:11:42.579Z,278.60
2023-03-03T12:14:18.618Z,266.27
2023-03-03T12:16:54.656Z,269.58
2023-03-03T12:19:30.815Z,255.13
2023-03-03T12:22:12.454Z,250.02
2023-03-03T12:24:59.937Z,189.98
2023-03-03T12:27:31.460Z,232.70
2023-03-03T12:30:10.535Z,228.60
2023-03-03T12:32:56.525Z,230.63
2023-03-03T12:35:29.733Z,230.52
2023-03-03T12:38:03.196Z,226.13
2023-03-03T12:40:34.952Z,233.43
2023-03-03T12:43:19.202Z,229.43
2023-03-03T12:45:56.514Z,208.05
2023-03-03T12:48:29.967Z,221.70
2023-03-03T12:51:04.043Z,217.85
2023-03-03T12:53:41.499Z,212.77
2023-03-03T12:56:11.548Z,224.55
2023-03-03T12:58:46.438Z,202.95
2023-03-03T13:01:28.439Z,213.25
2023-03-03T13:04:05.248Z,179.47
2023-03-03T13:06:34.590Z,207.70
2023-03-03T13:09:23.335Z,200.00
2023-03-03T13:12:01.616Z,186.05
2023-03-03T13:14:35.988Z,201.60
2023-03-03T13:17:19.021Z,186.63
2023-03-03T13:22:30.856Z,193.48
2023-03-03T13:27:31.276Z,176.88
2023-03-03T13:30:02.464Z,191.40
2023-03-03T13:32:37.747Z,204.13
2023-03-03T13:35:09.091Z,182.18
2023-03-03T13:37:41.034Z,192.27
2023-03-03T13:40:17.943Z,196.82
2023-03-03T13:42:49.829Z,179.55
2023-03-03T13:45:24.561Z,163.27
2023-03-03T13:48:02.292Z,190.75
2023-03-03T13:50:34.632Z,170.10
2023-03-03T13:53:34.303Z,191.70
2023-03-03T13:56:09.690Z,165.48
2023-03-03T13:58:42.586Z,162.65
2023-03-03T14:01:15.982Z,180.70
2023-03-03T14:03:59.311Z,177.10
2023-03-03T14:06:28.552Z,144.95
2023-03-03T14:09:13.242Z,158.70
2023-03-03T14:11:45.774Z,169.43
2023-03-03T14:14:24.843Z,160.23
2023-03-03T14:16:54.940Z,181.98
2023-03-03T14:19:28.454Z,169.30
2023-03-03T14:22:06.238Z,167.05
2023-03-03T14:24:56.172Z,161.25
2023-03-03T14:27:26.219Z,155.82
2023-03-03T14:29:54.710Z,166.00
2023-03-03T14:32:35.877Z,170.80
2023-03-03T14:35:20.590Z,163.50
2023-03-03T14:37:48.532Z,156.60
2023-03-03T14:40:20.573Z,149.90
2023-03-03T14:42:50.009Z,146.70
2023-03-03T14:45:36.023Z,140.93
2023-03-03T14:48:13.145Z,134.18
2023-03-03T14:50:44.503Z,143.02
2023-03-03T14:53:16.474Z,135.35
2023-03-03T14:58:31.171Z,122.07
2023-03-03T15:01:18.494Z,128.35
2023-03-03T15:03:49.059Z,132.18
2023-03-03T15:06:38.165Z,157.60
2023-03-03T15:09:26.146Z,163.52
2023-03-03T15:11:55.609Z,130.52
2023-03-03T15:14:32.370Z,148.70
2023-03-03T15:17:19.956Z,125.78
2023-03-03T15:19:58.601Z,64.78
2023-03-03T15:22:42.428Z,123.82
2023-03-03T15:25:18.753Z,126.00
2023-03-03T15:27:51.273Z,116.18
2023-03-03T15:30:26.212Z,112.38
2023-03-03T15:32:59.376Z,128.93
2023-03-03T15:35:37.673Z,111.00
2023-03-03T15:38:16.510Z,114.25
2023-03-03T15:40:48.877Z,124.32
2023-03-03T15:43:23.866Z,125.55
2023-03-03T15:45:58.116Z,135.45
2023-03-03T15:48:39.486Z,141.00
2023-03-03T15:51:11.669Z,131.55
2023-03-03T15:53:58.136Z,113.78
2023-03-03T15:56:32.105Z,121.72
2023-03-03T15:59:26.403Z,116.22
2023-03-03T16:02:01.615Z,121.13
2023-03-03T16:04:34.237Z,115.07
2023-03-03T16:07:08.403Z,110.05
2023-03-03T16:09:52.648Z,119.85
2023-03-03T16:12:26.727Z,113.28
2023-03-03T16:15:17.583Z,124.30
2023-03-03T16:17:52.728Z,133.52
2023-03-03T16:20:24.371Z,120.53
2023-03-03T16:23:34.977Z,127.80
2023-03-03T16:26:14.311Z,123.07
2023-03-03T16:28:55.352Z,115.00
2023-03-03T16:31:28.020Z,118.78
2023-03-03T16:36:32.930Z,122.25
2023-03-03T16:39:05.147Z,124.50
2023-03-03T16:41:44.437Z,126.55
2023-03-03T16:44:28.855Z,104.95
2023-03-03T16:47:03.891Z,91.40
2023-03-03T16:49:35.435Z,98.28
2023-03-03T16:52:09.617Z,99.90
2023-03-03T16:54:41.455Z,96.72
2023-03-03T16:59:49.623Z,99.43
2023-03-03T17:02:43.084Z,92.93
2023-03-03T17:05:21.976Z,83.15
2023-03-03T17:07:58.957Z,90.65
2023-03-03T17:10:28.408Z,90.97
2023-03-03T17:13:24.074Z,83.28
2023-03-03T17:16:05.348Z,93.72
2023-03-03T17:18:42.785Z,74.07
2023-03-03T17:21:18.922Z,77.70
2023-03-03T17:24:01.200Z,89.72
2023-03-03T17:26:35.580Z,93.15
2023-03-03T17:29:20.218Z,84.60
2023-03-03T17:31:55.073Z,86.20
2023-03-03T17:34:35.134Z,91.90
2023-03-03T17:37:17.804Z,89.15
2023-03-03T17:40:12.609Z,86.25
2023-03-03T17:42:46.354Z,86.32
2023-03-03T17:45:17.005Z,80.38
2023-03-03T17:47:59.042Z,86.68
2023-03-03T17:53:14.008Z,86.55
2023-03-03T17:55:51.995Z,89.03
2023-03-03T17:58:44.861Z,77.97
2023-03-03T18:01:24.503Z,87.28
2023-03-03T18:04:27.794Z,88.15
2023-03-03T18:07:23.020Z,83.28
2023-03-03T18:10:01.290Z,74.95
2023-03-03T18:12:36.750Z,81.05
2023-03-03T18:15:28.922Z,69.80
2023-03-03T18:18:24.550Z,74.82
2023-03-03T18:21:05.320Z,81.07
2023-03-03T18:23:41.578Z,78.32
2023-03-03T18:26:35.942Z,79.40
2023-03-03T18:29:23.810Z,74.75
2023-03-03T18:32:04.611Z,72.50
2023-03-03T18:34:39.276Z,88.03
2023-03-03T18:37:13.634Z,74.70
2023-03-03T18:39:45.582Z,67.63
2023-03-03T18:42:37.714Z,69.57
2023-03-03T18:45:45.866Z,76.97
2023-03-03T18:48:14.638Z,72.35
2023-03-03T18:50:45.421Z,63.20
2023-03-03T18:53:28.656Z,70.45
2023-03-03T18:55:58.522Z,65.45
2023-03-03T18:58:44.370Z,73.70
2023-03-03T19:01:37.170Z,63.78
2023-03-03T19:04:18.283Z,68.43
2023-03-03T19:07:24.686Z,70.95
2023-03-03T19:09:58.122Z,73.90
2023-03-03T19:12:47.779Z,79.10
2023-03-03T19:15:52.146Z,162.00
2023-03-03T19:18:23.586Z,78.75
2023-03-03T19:20:56.477Z,84.32
2023-03-03T19:23:33.068Z,87.40
2023-03-03T19:26:32.563Z,79.60
2023-03-03T19:29:06.506Z,80.03
2023-03-03T19:31:39.832Z,86.00
2023-03-03T19:34:12.950Z,96.72
2023-03-03T19:36:55.307Z,90.65
2023-03-03T19:39:46.160Z,101.85
2023-03-03T19:42:21.495Z,100.35
2023-03-03T19:45:11.659Z,103.45
2023-03-03T19:47:44.115Z,121.63
2023-03-03T19:50:34.479Z,115.55
2023-03-03T19:53:09.593Z,103.55
2023-03-03T19:55:47.132Z,129.57
2023-03-03T19:58:26.294Z,130.80
2023-03-03T20:01:01.285Z,127.63
2023-03-03T20:03:43.954Z,128.07
2023-03-03T20:06:25.389Z,139.70
2023-03-03T20:08:58.368Z,128.52
2023-03-03T20:11:46.090Z,127.15
2023-03-03T20:14:26.926Z,130.38
2023-03-03T20:16:58.233Z,116.13
2023-03-03T20:19:32.020Z,113.68
2023-03-03T20:22:08.182Z,101.28
2023-03-03T20:24:47.097Z,102.95
2023-03-03T20:27:19.569Z,82.50
2023-03-03T20:30:11.588Z,91.70
2023-03-03T20:32:52.334Z,81.40
2023-03-03T20:35:29.544Z,85.32
2023-03-03T20:38:04.857Z,96.88
2023-03-03T20:40:36.555Z,85.85
2023-03-03T20:43:13.968Z,69.70
2023-03-03T20:45:49.932Z,89.20
2023-03-03T20:48:28.339Z,80.00
2023-03-03T20:51:02.446Z,82.15
2023-03-03T20:53:36.969Z,88.45
2023-03-03T20:56:08.535Z,96.82
2023-03-03T20:58:47.494Z,92.72
2023-03-03T21:01:17.748Z,99.57
2023-03-03T21:03:46.417Z,90.43
2023-03-03T21:06:16.168Z,93.10
2023-03-03T21:08:48.510Z,101.03
2023-03-03T21:11:18.462Z,88.53
2023-03-03T21:13:48.794Z,100.53
2023-03-03T21:16:31.446Z,97.57
2023-03-03T21:19:02.353Z,91.50
2023-03-03T21:21:32.245Z,93.15
2023-03-03T21:24:00.655Z,98.00
2023-03-03T21:26:51.500Z,92.03
2023-03-03T21:29:23.801Z,89.55
2023-03-03T21:31:53.456Z,94.68
2023-03-03T21:34:25.192Z,90.35
2023-03-03T21:36:55.203Z,96.03
2023-03-03T21:39:27.456Z,98.55
2023-03-03T21:41:57.158Z,104.22
2023-03-03T21:44:35.733Z,109.75
2023-03-03T21:47:04.230Z,102.10
2023-03-03T21:49:32.657Z,122.43
2023-03-03T21:52:01.018Z,112.30
2023-03-03T21:54:29.607Z,116.90
2023-03-03T21:56:57.568Z,112.57
2023-03-03T21:59:25.835Z,113.00
2023-03-03T22:01:55.452Z,116.32
2023-03-03T22:04:23.858Z,120.65
2023-03-03T22:06:52.698Z,116.05
2023-03-03T22:09:21.390Z,119.68
2023-03-03T22:11:49.669Z,121.60
2023-03-03T22:14:18.036Z,128.15
2023-03-03T22:16:46.399Z,119.65
2023-03-03T22:19:16.163Z,121.47
2023-03-03T22:21:44.088Z,125.13
2023-03-03T22:24:12.401Z,124.75
2023-03-03T22:26:40.359Z,128.45
2023-03-03T22:29:08.550Z,129.60
2023-03-03T22:31:36.487Z,131.52
2023-03-03T22:34:05.333Z,126.38
2023-03-03T22:36:34.884Z,114.13
2023-03-03T22:39:03.046Z,118.20
2023-03-03T22:41:31.159Z,113.00
2023-03-03T22:43:59.419Z,123.07
2023-03-03T22:46:27.501Z,123.15
2023-03-03T22:48:55.984Z,127.78
2023-03-03T22:51:23.923Z,122.32
2023-03-03T22:53:53.516Z,121.57
2023-03-03T22:56:21.649Z,122.38
2023-03-03T22:58:50.344Z,126.78
2023-03-03T23:01:18.271Z,110.90
2023-03-03T23:03:46.469Z,118.07
2023-03-03T23:06:14.377Z,121.03
2023-03-03T23:08:42.584Z,119.88
2023-03-03T23:11:11.877Z,113.90
2023-03-03T23:13:40.043Z,102.07
2023-03-03T23:16:08.583Z,106.38
2023-03-03T23:18:36.962Z,93.40
2023-03-03T23:21:05.273Z,96.95
2023-03-03T23:23:33.443Z,105.93
2023-03-03T23:26:02.100Z,98.32
2023-03-03T23:28:31.789Z,95.10
2023-03-03T23:30:59.729Z,93.20
2023-03-03T23:33:28.010Z,97.35
2023-03-03T23:35:56.084Z,93.70
2023-03-03T23:38:24.531Z,89.18
2023-03-03T23:40:52.454Z,99.35
2023-03-03T23:43:20.683Z,92.40
2023-03-03T23:45:49.923Z,92.97
2023-03-03T23:48:18.242Z,86.05
2023-03-03T23:50:46.226Z,89.78
2023-03-03T23:53:14.657Z,91.88
2023-03-03T23:55:43.228Z,81.70
2023-03-03T23:58:11.952Z,84.57
